Time;durP1;ratioP1;P1;durP2;ratioP2;P2;SDS_P1;SDS_P2;PMS_P1;PMS_P2;Temp;Humidity;BMP_temperature;BMP_pressure;BME280_temperature;BME280_humidity;BME280_pressure;Samples;Min_cycle;Max_cycle;Signal;HPM_P1;HPM_P2
2024/03/16 00:01:56;;;;;;;63.15;10.20;;;;;;;;;;5036464;28;20575;-64
2024/03/16 00:04:23;;;;;;;61.47;10.10;;;;;;;;;;5033716;28;20140;-64
2024/03/16 00:06:49;;;;;;;61.92;9.52;;;;;;;;;;5030849;28;20057;-64
2024/03/16 00:09:15;;;;;;;66.57;10.57;;;;;;;;;;5032831;28;20404;-64
2024/03/16 00:11:41;;;;;;;48.97;9.70;;;;;;;;;;5032923;28;20041;-64
2024/03/16 00:14:08;;;;;;;55.80;9.02;;;;;;;;;;5031417;28;20071;-64
2024/03/16 00:16:34;;;;;;;50.50;8.38;;;;;;;;;;5033585;28;20099;-65
2024/03/16 00:19:00;;;;;;;44.67;7.97;;;;;;;;;;5041818;28;20098;-64
2024/03/16 00:21:26;;;;;;;52.03;8.50;;;;;;;;;;5034798;28;20052;-64
2024/03/16 00:23:53;;;;;;;48.00;8.50;;;;;;;;;;5034946;28;20045;-64
2024/03/16 00:26:20;;;;;;;44.85;7.65;;;;;;;;;;5030377;28;20406;-64
2024/03/16 00:28:47;;;;;;;48.72;9.20;;;;;;;;;;5030397;28;20127;-64
2024/03/16 00:31:15;;;;;;;43.75;9.13;;;;;;;;;;5032918;28;20128;-64
2024/03/16 00:33:41;;;;;;;36.92;7.75;;;;;;;;;;5032029;28;20063;-64
2024/03/16 00:36:07;;;;;;;52.65;7.10;;;;;;;;;;5029320;28;20505;-64
2024/03/16 00:38:34;;;;;;;30.25;6.97;;;;;;;;;;5027488;28;20038;-64
2024/03/16 00:41:00;;;;;;;43.50;6.88;;;;;;;;;;5029763;28;20056;-64
2024/03/16 00:43:26;;;;;;;38.22;7.00;;;;;;;;;;5031780;28;20037;-64
2024/03/16 00:45:52;;;;;;;23.13;5.80;;;;;;;;;;5032994;28;20049;-64
2024/03/16 00:48:19;;;;;;;28.88;6.00;;;;;;;;;;5031006;28;20508;-64
2024/03/16 00:50:45;;;;;;;21.77;4.20;;;;;;;;;;5029803;28;20081;-64
2024/03/16 00:53:11;;;;;;;22.65;4.43;;;;;;;;;;5030275;28;20064;-64
2024/03/16 00:55:37;;;;;;;24.02;4.25;;;;;;;;;;5027914;28;20041;-64
2024/03/16 00:58:04;;;;;;;20.95;3.97;;;;;;;;;;5031746;28;20044;-64
2024/03/16 01:00:31;;;;;;;22.23;3.45;;;;;;;;;;5030606;28;20120;-64
2024/03/16 01:02:58;;;;;;;24.63;5.10;;;;;;;;;;5029621;28;20541;-64
2024/03/16 01:05:26;;;;;;;20.23;3.95;;;;;;;;;;5030431;28;20361;-64
2024/03/16 01:07:52;;;;;;;25.30;4.32;;;;;;;;;;5032411;28;20405;-64
2024/03/16 01:10:19;;;;;;;23.02;4.50;;;;;;;;;;5026566;28;20048;-64
2024/03/16 01:12:45;;;;;;;17.83;3.70;;;;;;;;;;5028080;28;20458;-64
2024/03/16 01:15:11;;;;;;;18.95;3.85;;;;;;;;;;5029866;28;20037;-64
2024/03/16 01:17:37;;;;;;;13.00;2.67;;;;;;;;;;5027954;28;20116;-64
2024/03/16 01:20:05;;;;;;;13.82;2.88;;;;;;;;;;5031383;28;20037;-64
2024/03/16 01:22:32;;;;;;;13.30;2.10;;;;;;;;;;5038377;28;20675;-64
2024/03/16 01:24:58;;;;;;;9.65;1.80;;;;;;;;;;5029139;28;20084;-64
2024/03/16 01:27:24;;;;;;;14.38;2.03;;;;;;;;;;5027985;28;20060;-64
2024/03/16 01:29:51;;;;;;;11.30;1.90;;;;;;;;;;5036739;28;20450;-64
2024/03/16 01:32:17;;;;;;;12.98;2.50;;;;;;;;;;5024248;28;20052;-64
2024/03/16 01:34:43;;;;;;;13.55;3.60;;;;;;;;;;5034675;28;20381;-64
2024/03/16 01:37:12;;;;;;;11.65;2.45;;;;;;;;;;5048164;28;20071;-64
2024/03/16 01:39:39;;;;;;;11.88;3.35;;;;;;;;;;5027375;28;20052;-64
2024/03/16 01:42:06;;;;;;;10.93;2.25;;;;;;;;;;5026362;28;20183;-64
2024/03/16 01:44:32;;;;;;;12.10;3.50;;;;;;;;;;5027874;28;20064;-64
2024/03/16 01:46:59;;;;;;;13.02;1.88;;;;;;;;;;5026459;28;20053;-64
2024/03/16 01:49:25;;;;;;;8.73;2.17;;;;;;;;;;5027356;28;20041;-64
2024/03/16 01:51:51;;;;;;;11.70;2.58;;;;;;;;;;5026875;28;20359;-64
2024/03/16 01:54:18;;;;;;;8.27;1.70;;;;;;;;;;5034163;28;20044;-64
2024/03/16 01:56:44;;;;;;;8.32;1.65;;;;;;;;;;5029610;28;20148;-64
2024/03/16 01:59:12;;;;;;;9.10;2.10;;;;;;;;;;5036465;28;20341;-64
2024/03/16 02:01:39;;;;;;;7.28;1.60;;;;;;;;;;5036671;28;20049;-64
2024/03/16 02:04:05;;;;;;;6.20;1.40;;;;;;;;;;5027147;28;20367;-64
2024/03/16 02:06:31;;;;;;;7.85;1.63;;;;;;;;;;5028602;28;20048;-64
2024/03/16 02:09:00;;;;;;;6.32;1.55;;;;;;;;;;5030372;28;20378;-64
2024/03/16 02:11:26;;;;;;;5.63;1.10;;;;;;;;;;5014816;28;20045;-64
2024/03/16 02:13:52;;;;;;;11.45;1.30;;;;;;;;;;5029827;28;20143;-64
2024/03/16 02:16:18;;;;;;;7.88;1.70;;;;;;;;;;5026862;28;20048;-64
2024/03/16 02:18:45;;;;;;;7.30;0.90;;;;;;;;;;5031286;28;21268;-64
2024/03/16 02:21:11;;;;;;;5.35;0.90;;;;;;;;;;5031803;28;20033;-64
2024/03/16 02:23:39;;;;;;;4.85;0.93;;;;;;;;;;5033249;28;20140;-64
2024/03/16 02:26:07;;;;;;;10.50;1.00;;;;;;;;;;5035146;28;20055;-64
2024/03/16 02:28:33;;;;;;;6.88;1.30;;;;;;;;;;5028888;28;20555;-64
2024/03/16 02:30:59;;;;;;;9.35;1.42;;;;;;;;;;5028670;28;20049;-64
2024/03/16 02:33:27;;;;;;;8.60;1.17;;;;;;;;;;5031091;28;20047;-64
2024/03/16 02:35:54;;;;;;;9.98;1.60;;;;;;;;;;5039701;28;20123;-64
2024/03/16 02:38:20;;;;;;;9.38;1.70;;;;;;;;;;5038979;28;20072;-64
2024/03/16 02:40:46;;;;;;;7.18;1.30;;;;;;;;;;5039026;28;20041;-64
2024/03/16 02:43:13;;;;;;;6.60;1.17;;;;;;;;;;5040075;28;20341;-64
2024/03/16 02:45:39;;;;;;;11.30;1.48;;;;;;;;;;5041211;28;20045;-64
2024/03/16 02:48:06;;;;;;;11.45;2.53;;;;;;;;;;5041584;28;20540;-64
2024/03/16 02:50:32;;;;;;;11.80;1.80;;;;;;;;;;5039617;28;20049;-64
2024/03/16 02:52:59;;;;;;;11.73;1.90;;;;;;;;;;5039737;28;20432;-64
2024/03/16 02:55:25;;;;;;;13.88;1.85;;;;;;;;;;5037297;28;20130;-64
2024/03/16 02:57:51;;;;;;;12.90;2.95;;;;;;;;;;5040850;28;20052;-64
2024/03/16 03:00:18;;;;;;;17.50;3.03;;;;;;;;;;5037871;28;20211;-64
2024/03/16 03:02:44;;;;;;;20.02;3.13;;;;;;;;;;5035272;28;20039;-64
2024/03/16 03:05:11;;;;;;;19.92;3.15;;;;;;;;;;5038283;28;21184;-64
2024/03/16 03:07:38;;;;;;;24.02;3.92;;;;;;;;;;5037030;28;20397;-64
2024/03/16 03:10:06;;;;;;;17.80;3.15;;;;;;;;;;5039448;28;20204;-64
2024/03/16 03:12:33;;;;;;;23.77;4.35;;;;;;;;;;5039799;28;20053;-64
2024/03/16 03:14:59;;;;;;;20.10;2.90;;;;;;;;;;5042433;28;20059;-64
2024/03/16 03:17:25;;;;;;;27.13;3.80;;;;;;;;;;5043567;28;20467;-64
2024/03/16 03:19:51;;;;;;;30.05;3.65;;;;;;;;;;5039134;28;20048;-64
2024/03/16 03:22:18;;;;;;;24.13;3.95;;;;;;;;;;5041084;28;21821;-64
2024/03/16 03:24:44;;;;;;;24.33;3.53;;;;;;;;;;5043188;28;20523;-64
2024/03/16 03:27:10;;;;;;;24.92;3.92;;;;;;;;;;5038575;28;20060;-64
2024/03/16 03:29:36;;;;;;;25.35;3.40;;;;;;;;;;5039548;28;20123;-64
2024/03/16 03:32:02;;;;;;;22.00;3.72;;;;;;;;;;5043656;28;20118;-64
2024/03/16 03:34:28;;;;;;;20.15;3.42;;;;;;;;;;5040485;28;20528;-64
2024/03/16 03:36:55;;;;;;;28.35;4.78;;;;;;;;;;5039307;28;20132;-64
2024/03/16 03:39:24;;;;;;;19.10;4.15;;;;;;;;;;5043761;28;20396;-64
2024/03/16 03:41:50;;;;;;;34.75;4.80;;;;;;;;;;5044244;28;20099;-64
2024/03/16 03:44:25;;;;;;;21.88;3.55;;;;;;;;;;5042685;28;20099;-64
2024/03/16 03:46:51;;;;;;;22.50;3.38;;;;;;;;;;5034712;28;20049;-64
2024/03/16 03:49:29;;;;;;;21.27;3.05;;;;;;;;;;5033303;28;20120;-64
2024/03/16 03:51:57;;;;;;;18.42;3.67;;;;;;;;;;5027927;28;20053;-64
2024/03/16 03:54:24;;;;;;;20.52;3.40;;;;;;;;;;5021768;28;20048;-64
2024/03/16 03:56:51;;;;;;;22.35;3.20;;;;;;;;;;5034231;28;20519;-64
2024/03/16 03:59:18;;;;;;;12.68;4.53;;;;;;;;;;5032765;28;20065;-64
2024/03/16 04:01:44;;;;;;;10.68;2.22;;;;;;;;;;5035559;28;20358;-64
2024/03/16 04:04:10;;;;;;;17.20;2.63;;;;;;;;;;5031818;28;20128;-64
2024/03/16 04:06:36;;;;;;;16.77;2.58;;;;;;;;;;5034050;28;20045;-64
2024/03/16 04:09:03;;;;;;;21.17;3.90;;;;;;;;;;5032997;28;20099;-64
2024/03/16 04:11:29;;;;;;;13.82;2.20;;;;;;;;;;5029614;28;20041;-64
2024/03/16 04:13:55;;;;;;;14.70;2.65;;;;;;;;;;5027720;28;20191;-64
2024/03/16 04:16:22;;;;;;;16.05;2.53;;;;;;;;;;5036094;28;20459;-64
2024/03/16 04:18:48;;;;;;;10.43;2.78;;;;;;;;;;5036162;28;20076;-64
2024/03/16 04:21:15;;;;;;;12.15;1.80;;;;;;;;;;5033597;28;20061;-64
2024/03/16 04:23:42;;;;;;;15.57;2.78;;;;;;;;;;5038534;28;20125;-64
2024/03/16 04:26:08;;;;;;;13.85;2.20;;;;;;;;;;5031268;28;20059;-64
2024/03/16 04:28:34;;;;;;;11.88;2.17;;;;;;;;;;5033637;28;20053;-64
2024/03/16 04:31:00;;;;;;;18.42;2.63;;;;;;;;;;5031514;28;20047;-64
2024/03/16 04:33:27;;;;;;;24.67;3.42;;;;;;;;;;5013013;28;20397;-64
2024/03/16 04:35:53;;;;;;;11.85;2.20;;;;;;;;;;5029927;28;21279;-64
2024/03/16 04:38:20;;;;;;;15.13;3.47;;;;;;;;;;5031810;28;20037;-64
2024/03/16 04:40:46;;;;;;;16.60;2.28;;;;;;;;;;5027916;28;20053;-64
2024/03/16 04:43:13;;;;;;;11.23;2.00;;;;;;;;;;5038283;28;20630;-64
2024/03/16 04:45:39;;;;;;;15.70;2.53;;;;;;;;;;5034777;28;20045;-64
2024/03/16 04:48:05;;;;;;;21.55;2.85;;;;;;;;;;5036444;28;20448;-64
2024/03/16 04:50:31;;;;;;;17.88;2.80;;;;;;;;;;5031952;28;20060;-64
2024/03/16 04:52:58;;;;;;;13.38;2.10;;;;;;;;;;5037561;28;20446;-64
2024/03/16 04:55:24;;;;;;;14.75;2.83;;;;;;;;;;5033410;28;20048;-64
2024/03/16 04:57:50;;;;;;;11.85;2.05;;;;;;;;;;5032040;28;20073;-64
2024/03/16 05:00:16;;;;;;;10.15;1.80;;;;;;;;;;5027825;28;20052;-64
2024/03/16 05:02:42;;;;;;;19.35;1.88;;;;;;;;;;5019588;28;20513;-64
2024/03/16 05:05:08;;;;;;;13.20;2.38;;;;;;;;;;5030286;28;20186;-64
2024/03/16 05:07:35;;;;;;;11.23;1.90;;;;;;;;;;5029530;28;20041;-64
2024/03/16 05:10:04;;;;;;;14.52;2.13;;;;;;;;;;5027799;28;20048;-64
2024/03/16 05:12:30;;;;;;;8.98;1.65;;;;;;;;;;5029170;28;20064;-64
2024/03/16 05:14:56;;;;;;;9.85;2.40;;;;;;;;;;5032238;28;20041;-64
2024/03/16 05:17:22;;;;;;;9.48;1.80;;;;;;;;;;5032009;28;20473;-64
2024/03/16 05:19:49;;;;;;;5.72;1.50;;;;;;;;;;5027706;28;20041;-64
2024/03/16 05:22:15;;;;;;;10.50;2.47;;;;;;;;;;5028314;28;20706;-64
2024/03/16 05:24:41;;;;;;;7.47;1.55;;;;;;;;;;5037028;28;20049;-64
2024/03/16 05:27:09;;;;;;;11.77;2.55;;;;;;;;;;5031092;28;20499;-64
2024/03/16 05:29:36;;;;;;;9.23;2.03;;;;;;;;;;5034350;28;20064;-64
2024/03/16 05:32:03;;;;;;;12.90;1.67;;;;;;;;;;5029019;28;20053;-64
2024/03/16 05:34:29;;;;;;;8.30;1.48;;;;;;;;;;5033539;28;20092;-64
2024/03/16 05:36:55;;;;;;;10.50;2.20;;;;;;;;;;5037826;28;20405;-64
2024/03/16 05:39:22;;;;;;;14.18;2.38;;;;;;;;;;5026210;28;20045;-64
2024/03/16 05:41:48;;;;;;;10.20;1.73;;;;;;;;;;5029675;28;20271;-64
2024/03/16 05:44:14;;;;;;;11.32;2.28;;;;;;;;;;5030435;28;20057;-64
2024/03/16 05:46:41;;;;;;;10.18;1.98;;;;;;;;;;5036039;28;20041;-64
2024/03/16 05:49:07;;;;;;;6.40;1.42;;;;;;;;;;5036450;28;20055;-64
2024/03/16 05:51:33;;;;;;;13.43;2.08;;;;;;;;;;5025516;28;21170;-64
2024/03/16 05:53:59;;;;;;;11.00;1.77;;;;;;;;;;5028599;28;20124;-64
2024/03/16 05:56:26;;;;;;;14.52;1.90;;;;;;;;;;5031144;28;20041;-64
2024/03/16 05:58:52;;;;;;;11.18;2.17;;;;;;;;;;5037545;28;20045;-64
2024/03/16 06:01:18;;;;;;;13.02;1.73;;;;;;;;;;5029964;28;20047;-64
2024/03/16 06:03:44;;;;;;;11.93;3.03;;;;;;;;;;5033784;28;20046;-64
2024/03/16 06:06:10;;;;;;;11.50;1.90;;;;;;;;;;5028645;28;20049;-64
2024/03/16 06:08:37;;;;;;;9.52;1.60;;;;;;;;;;5034820;28;20045;-64
2024/03/16 06:11:03;;;;;;;10.63;1.80;;;;;;;;;;5032643;28;20045;-64
2024/03/16 06:13:29;;;;;;;10.63;2.50;;;;;;;;;;5027862;28;20163;-64
2024/03/16 06:15:55;;;;;;;6.82;1.13;;;;;;;;;;5039823;28;20048;-64
2024/03/16 06:18:21;;;;;;;10.95;1.70;;;;;;;;;;5032881;28;20059;-64
2024/03/16 06:20:48;;;;;;;14.98;1.77;;;;;;;;;;5032855;28;20484;-64
2024/03/16 06:23:15;;;;;;;9.05;1.48;;;;;;;;;;5032789;28;20052;-64
2024/03/16 06:25:48;;;;;;;13.95;1.63;;;;;;;;;;5028486;28;20475;-64
2024/03/16 06:28:21;;;;;;;12.63;1.98;;;;;;;;;;5030462;28;20423;-64
2024/03/16 06:30:49;;;;;;;10.43;2.58;;;;;;;;;;5028131;28;20500;-64
2024/03/16 06:33:31;;;;;;;14.25;2.60;;;;;;;;;;5026505;28;20147;-64
2024/03/16 06:35:58;;;;;;;11.15;1.65;;;;;;;;;;5032235;28;20053;-64
2024/03/16 06:38:24;;;;;;;15.05;2.28;;;;;;;;;;5027990;28;20068;-64
2024/03/16 06:40:50;;;;;;;14.60;2.10;;;;;;;;;;5024787;28;20045;-64
2024/03/16 06:43:16;;;;;;;15.25;2.08;;;;;;;;;;5029019;28;20045;-64
2024/03/16 06:45:43;;;;;;;10.65;1.90;;;;;;;;;;5037764;28;20462;-64
2024/03/16 06:48:09;;;;;;;12.07;2.15;;;;;;;;;;5038312;28;20504;-65
2024/03/16 06:50:36;;;;;;;7.25;1.80;;;;;;;;;;5029138;28;20045;-64
2024/03/16 06:53:03;;;;;;;14.80;1.42;;;;;;;;;;5029547;28;20052;-64
2024/03/16 06:55:29;;;;;;;14.25;1.90;;;;;;;;;;5032157;28;20219;-64
2024/03/16 06:57:55;;;;;;;11.02;2.10;;;;;;;;;;5041033;28;20053;-63
2024/03/16 07:00:21;;;;;;;11.23;1.88;;;;;;;;;;5034656;28;20411;-63
2024/03/16 07:02:47;;;;;;;13.52;1.77;;;;;;;;;;5036259;28;20136;-64
2024/03/16 07:05:14;;;;;;;12.65;2.67;;;;;;;;;;5045005;28;20457;-64
2024/03/16 07:07:40;;;;;;;9.80;1.67;;;;;;;;;;5038783;28;20066;-63
2024/03/16 07:10:06;;;;;;;11.70;2.17;;;;;;;;;;5043190;28;20056;-64
2024/03/16 07:12:33;;;;;;;13.05;1.75;;;;;;;;;;5043341;28;20061;-64
2024/03/16 07:15:00;;;;;;;13.88;1.90;;;;;;;;;;5041881;28;20092;-63
2024/03/16 07:17:26;;;;;;;10.00;1.73;;;;;;;;;;5044212;28;20129;-63
2024/03/16 07:19:54;;;;;;;11.82;1.63;;;;;;;;;;5027846;28;20048;-64
2024/03/16 07:22:20;;;;;;;12.35;2.13;;;;;;;;;;5041819;28;20125;-64
2024/03/16 07:24:46;;;;;;;9.95;1.90;;;;;;;;;;5042620;28;20373;-64
2024/03/16 07:27:12;;;;;;;12.45;1.77;;;;;;;;;;5040114;28;20090;-64
2024/03/16 07:29:40;;;;;;;10.45;1.88;;;;;;;;;;5029168;28;20057;-64
2024/03/16 07:32:07;;;;;;;11.50;1.67;;;;;;;;;;5047709;28;20068;-64
2024/03/16 07:34:34;;;;;;;13.50;1.98;;;;;;;;;;5047057;28;20497;-63
2024/03/16 07:37:00;;;;;;;7.75;1.50;;;;;;;;;;5046471;28;20047;-64
2024/03/16 07:39:26;;;;;;;10.77;1.20;;;;;;;;;;5047098;28;20041;-64
2024/03/16 07:41:52;;;;;;;12.77;1.60;;;;;;;;;;5045650;28;20033;-64
2024/03/16 07:44:19;;;;;;;11.00;1.40;;;;;;;;;;5043334;28;20086;-64
2024/03/16 07:46:46;;;;;;;14.38;1.48;;;;;;;;;;5045176;28;20040;-64
2024/03/16 07:49:13;;;;;;;12.35;2.88;;;;;;;;;;5035515;28;20119;-64
2024/03/16 07:51:39;;;;;;;10.55;1.55;;;;;;;;;;5031470;28;20516;-63
2024/03/16 07:54:11;;;;;;;10.95;2.00;;;;;;;;;;5036615;28;20412;-64
2024/03/16 07:56:37;;;;;;;8.35;1.30;;;;;;;;;;5041522;28;20059;-64
2024/03/16 07:59:04;;;;;;;11.50;2.08;;;;;;;;;;5041790;28;20029;-64
2024/03/16 08:01:31;;;;;;;13.00;2.25;;;;;;;;;;5043186;28;20049;-64
2024/03/16 08:03:57;;;;;;;12.30;1.95;;;;;;;;;;5025767;28;20136;-64
2024/03/16 08:06:23;;;;;;;13.90;2.20;;;;;;;;;;5038831;28;20486;-64
2024/03/16 08:08:50;;;;;;;14.90;1.63;;;;;;;;;;5026427;28;20037;-64
2024/03/16 08:11:16;;;;;;;12.63;1.63;;;;;;;;;;5040769;28;20041;-65
2024/03/16 08:13:42;;;;;;;12.80;1.55;;;;;;;;;;5042022;28;20044;-64
2024/03/16 08:16:08;;;;;;;12.63;1.73;;;;;;;;;;5048235;28;20044;-64
2024/03/16 08:18:34;;;;;;;13.23;1.92;;;;;;;;;;5046798;28;20036;-63
2024/03/16 08:21:01;;;;;;;12.20;1.63;;;;;;;;;;5043870;28;20136;-63
2024/03/16 08:23:28;;;;;;;20.88;2.30;;;;;;;;;;5045645;28;20396;-63
2024/03/16 08:25:54;;;;;;;12.20;2.00;;;;;;;;;;5042441;28;20041;-63
2024/03/16 08:28:20;;;;;;;8.48;1.50;;;;;;;;;;5046871;28;20132;-63
2024/03/16 08:30:47;;;;;;;9.48;1.77;;;;;;;;;;5044495;28;20208;-64
2024/03/16 08:33:13;;;;;;;10.70;1.70;;;;;;;;;;5046261;28;20612;-63
2024/03/16 08:35:39;;;;;;;8.88;1.40;;;;;;;;;;5046912;28;20068;-63
2024/03/16 08:38:05;;;;;;;15.20;3.50;;;;;;;;;;5046352;28;20341;-65
2024/03/16 08:40:31;;;;;;;11.45;1.73;;;;;;;;;;5043798;28;20033;-65
2024/03/16 08:42:58;;;;;;;12.45;1.52;;;;;;;;;;5047029;28;20080;-63
2024/03/16 08:45:24;;;;;;;9.05;1.77;;;;;;;;;;5050679;28;20400;-63
2024/03/16 08:47:50;;;;;;;9.63;2.45;;;;;;;;;;5056323;28;20036;-63
2024/03/16 08:50:17;;;;;;;9.20;1.70;;;;;;;;;;5053312;28;20051;-63
2024/03/16 08:52:43;;;;;;;9.85;1.42;;;;;;;;;;5053333;28;20041;-63
2024/03/16 08:55:13;;;;;;;14.88;1.70;;;;;;;;;;5056451;28;20037;-64
2024/03/16 08:57:41;;;;;;;8.60;1.58;;;;;;;;;;5052172;28;20060;-63
2024/03/16 09:00:12;;;;;;;7.28;1.60;;;;;;;;;;5051968;28;20102;-64
2024/03/16 09:02:38;;;;;;;8.93;1.30;;;;;;;;;;5049225;28;20566;-66
2024/03/16 09:05:08;;;;;;;9.57;1.42;;;;;;;;;;5050781;28;20112;-63
2024/03/16 09:07:34;;;;;;;11.65;1.70;;;;;;;;;;5049285;28;20049;-64
2024/03/16 09:10:00;;;;;;;13.88;2.78;;;;;;;;;;5052125;28;20049;-63
2024/03/16 09:12:27;;;;;;;19.00;2.88;;;;;;;;;;5053678;28;21564;-63
2024/03/16 09:14:53;;;;;;;12.93;2.50;;;;;;;;;;5053291;28;20049;-64
2024/03/16 09:17:19;;;;;;;7.63;2.10;;;;;;;;;;5050616;28;20599;-63
2024/03/16 09:19:47;;;;;;;14.20;1.98;;;;;;;;;;5052282;28;20558;-63
2024/03/16 09:22:13;;;;;;;17.77;3.38;;;;;;;;;;5050448;28;20047;-63
2024/03/16 09:24:40;;;;;;;15.82;1.98;;;;;;;;;;5045827;28;20072;-63
2024/03/16 09:27:07;;;;;;;11.80;2.42;;;;;;;;;;5044624;28;20133;-64
2024/03/16 09:29:33;;;;;;;12.05;1.85;;;;;;;;;;5045974;28;20456;-64
2024/03/16 09:31:59;;;;;;;14.88;1.98;;;;;;;;;;5047760;28;20048;-63
2024/03/16 09:34:25;;;;;;;13.27;2.78;;;;;;;;;;5043598;28;20060;-63
2024/03/16 09:36:52;;;;;;;10.82;1.58;;;;;;;;;;5046295;28;20443;-64
2024/03/16 09:39:21;;;;;;;13.15;2.17;;;;;;;;;;5043173;28;20128;-63
2024/03/16 09:41:48;;;;;;;10.38;1.90;;;;;;;;;;5050194;28;20047;-63
2024/03/16 09:44:14;;;;;;;6.40;1.50;;;;;;;;;;5062929;28;20063;-63
2024/03/16 09:46:42;;;;;;;13.88;2.65;;;;;;;;;;5041238;28;20049;-63
2024/03/16 09:49:10;;;;;;;11.70;1.75;;;;;;;;;;5040435;28;20075;-63
2024/03/16 09:51:38;;;;;;;10.82;1.70;;;;;;;;;;5044116;28;20544;-63
2024/03/16 09:54:08;;;;;;;17.05;2.58;;;;;;;;;;5042181;28;20042;-64
2024/03/16 09:56:36;;;;;;;10.20;1.58;;;;;;;;;;5037315;28;20061;-63
2024/03/16 09:59:03;;;;;;;9.27;1.60;;;;;;;;;;5040903;28;20052;-72
2024/03/16 10:01:31;;;;;;;8.48;1.60;;;;;;;;;;5038205;28;20195;-63
2024/03/16 10:03:57;;;;;;;7.95;1.80;;;;;;;;;;5048451;28;20064;-63
2024/03/16 10:06:24;;;;;;;10.35;1.70;;;;;;;;;;5049283;28;20469;-63
2024/03/16 10:09:10;;;;;;;4.10;0.85;;;;;;;;;;5047329;28;20044;-63
2024/03/16 10:11:37;;;;;;;7.43;1.60;;;;;;;;;;5039231;28;20130;-63
2024/03/16 10:14:05;;;;;;;12.25;1.52;;;;;;;;;;5041428;28;20476;-63
2024/03/16 10:16:33;;;;;;;13.20;2.15;;;;;;;;;;5046654;28;20062;-63
2024/03/16 10:18:59;;;;;;;4.38;1.17;;;;;;;;;;5036287;28;20053;-63
2024/03/16 10:21:29;;;;;;;8.38;1.60;;;;;;;;;;5037087;28;20396;-63
2024/03/16 10:23:57;;;;;;;10.38;1.75;;;;;;;;;;5039391;28;20705;-63
2024/03/16 10:26:24;;;;;;;15.60;1.88;;;;;;;;;;5041292;28;20045;-63
2024/03/16 10:28:50;;;;;;;13.13;2.08;;;;;;;;;;5039782;28;20072;-63
2024/03/16 10:31:19;;;;;;;9.05;2.20;;;;;;;;;;5047247;28;20481;-63
2024/03/16 10:33:46;;;;;;;17.85;3.55;;;;;;;;;;5042491;28;20502;-63
2024/03/16 10:36:15;;;;;;;13.38;1.83;;;;;;;;;;5045330;28;20337;-63
2024/03/16 10:38:43;;;;;;;8.23;1.67;;;;;;;;;;5054997;28;20097;-63
2024/03/16 10:41:11;;;;;;;8.13;1.60;;;;;;;;;;5054152;28;20051;-64
2024/03/16 10:43:38;;;;;;;10.40;1.95;;;;;;;;;;5048663;28;20066;-63
2024/03/16 10:46:09;;;;;;;13.60;1.77;;;;;;;;;;5052792;28;20202;-64
2024/03/16 10:48:36;;;;;;;9.90;1.52;;;;;;;;;;5045822;28;20049;-64
2024/03/16 10:51:04;;;;;;;12.63;2.00;;;;;;;;;;5043050;28;20118;-63
2024/03/16 10:53:31;;;;;;;10.60;2.03;;;;;;;;;;5038842;28;20068;-64
2024/03/16 10:55:58;;;;;;;4.75;1.30;;;;;;;;;;5040085;28;20124;-64
2024/03/16 10:58:25;;;;;;;12.18;1.60;;;;;;;;;;5045439;28;20050;-63
2024/03/16 11:00:56;;;;;;;10.63;2.38;;;;;;;;;;5043500;28;20056;-64
2024/03/16 11:03:28;;;;;;;11.60;1.80;;;;;;;;;;5037612;28;20144;-63
2024/03/16 11:06:02;;;;;;;14.85;2.50;;;;;;;;;;5035270;28;20080;-63
2024/03/16 11:08:39;;;;;;;13.60;2.33;;;;;;;;;;5038916;28;20060;-64
2024/03/16 11:11:08;;;;;;;7.88;1.75;;;;;;;;;;5037088;28;20079;-64
2024/03/16 11:13:34;;;;;;;14.38;1.63;;;;;;;;;;5039931;28;20037;-64
2024/03/16 11:16:20;;;;;;;7.05;1.45;;;;;;;;;;5039467;28;20049;-64
2024/03/16 11:18:48;;;;;;;8.38;2.13;;;;;;;;;;5036843;28;20186;-64
2024/03/16 11:21:14;;;;;;;13.10;1.85;;;;;;;;;;5048135;28;20049;-64
2024/03/16 11:23:40;;;;;;;11.50;2.33;;;;;;;;;;5047962;28;20110;-64
2024/03/16 11:26:25;;;;;;;10.30;1.77;;;;;;;;;;5044728;28;20440;-63
2024/03/16 11:28:51;;;;;;;14.48;2.50;;;;;;;;;;5042504;28;20082;-64
2024/03/16 11:31:37;;;;;;;8.63;1.75;;;;;;;;;;5026280;28;20521;-64
2024/03/16 11:34:04;;;;;;;12.35;2.08;;;;;;;;;;5044942;28;20445;-63
2024/03/16 11:36:30;;;;;;;14.75;1.95;;;;;;;;;;5043836;28;20161;-64
2024/03/16 11:38:56;;;;;;;12.88;2.13;;;;;;;;;;5048853;28;20064;-63
2024/03/16 11:41:24;;;;;;;11.02;2.13;;;;;;;;;;5044009;28;20037;-64
2024/03/16 11:43:50;;;;;;;12.90;2.10;;;;;;;;;;5045601;28;20107;-63
2024/03/16 11:46:17;;;;;;;13.27;2.75;;;;;;;;;;5040286;28;20045;-63
2024/03/16 11:48:44;;;;;;;9.55;1.75;;;;;;;;;;5044068;28;20041;-64
2024/03/16 11:51:12;;;;;;;13.80;2.03;;;;;;;;;;5045311;28;20130;-64
2024/03/16 11:53:39;;;;;;;12.95;2.53;;;;;;;;;;5042473;28;20457;-64
2024/03/16 11:56:07;;;;;;;10.15;1.77;;;;;;;;;;5040817;28;20057;-64
2024/03/16 11:58:33;;;;;;;11.30;2.05;;;;;;;;;;5046528;28;20115;-64
2024/03/16 12:01:00;;;;;;;9.07;1.73;;;;;;;;;;5042920;28;20041;-64
2024/03/16 12:03:27;;;;;;;11.35;2.40;;;;;;;;;;5041054;28;20045;-64
2024/03/16 12:05:53;;;;;;;8.45;1.70;;;;;;;;;;5038227;28;20037;-64
2024/03/16 12:08:20;;;;;;;11.85;2.20;;;;;;;;;;5035241;28;20095;-64
2024/03/16 12:10:47;;;;;;;10.45;2.10;;;;;;;;;;5046953;28;20171;-64
2024/03/16 12:13:13;;;;;;;12.45;2.58;;;;;;;;;;5045528;28;20041;-64
2024/03/16 12:15:39;;;;;;;16.58;3.03;;;;;;;;;;5043244;28;20374;-64
2024/03/16 12:18:05;;;;;;;15.20;2.22;;;;;;;;;;5042455;28;20044;-64
2024/03/16 12:20:33;;;;;;;15.60;2.38;;;;;;;;;;5043022;28;20476;-64
2024/03/16 12:22:59;;;;;;;13.38;2.25;;;;;;;;;;5039624;28;20067;-64
2024/03/16 12:25:25;;;;;;;12.90;2.80;;;;;;;;;;5044775;28;20519;-64
2024/03/16 12:27:53;;;;;;;12.73;2.40;;;;;;;;;;5038284;28;20443;-64
2024/03/16 12:30:21;;;;;;;20.80;3.88;;;;;;;;;;5041550;28;20064;-64
2024/03/16 12:32:48;;;;;;;13.20;2.47;;;;;;;;;;5041491;28;20036;-64
2024/03/16 12:35:14;;;;;;;13.70;2.65;;;;;;;;;;5040529;28;20056;-64
2024/03/16 12:37:42;;;;;;;18.30;3.00;;;;;;;;;;5048443;28;20052;-64
2024/03/16 12:40:08;;;;;;;14.27;3.00;;;;;;;;;;5041820;28;20061;-64
2024/03/16 12:42:35;;;;;;;16.80;2.40;;;;;;;;;;5042906;28;20453;-64
2024/03/16 12:45:01;;;;;;;15.00;2.60;;;;;;;;;;5041315;28;20103;-64
2024/03/16 12:47:28;;;;;;;13.10;2.33;;;;;;;;;;5038336;28;20803;-64
2024/03/16 12:49:55;;;;;;;13.32;2.53;;;;;;;;;;5035240;28;20383;-64
2024/03/16 12:52:23;;;;;;;15.90;2.60;;;;;;;;;;5036200;28;20048;-64
2024/03/16 12:54:50;;;;;;;17.73;2.75;;;;;;;;;;5041798;28;20139;-64
2024/03/16 12:57:17;;;;;;;18.70;3.58;;;;;;;;;;5037736;28;20037;-65
2024/03/16 12:59:43;;;;;;;15.35;2.92;;;;;;;;;;5040467;28;20045;-64
2024/03/16 13:02:09;;;;;;;13.07;2.40;;;;;;;;;;5040950;28;20059;-64
2024/03/16 13:04:36;;;;;;;16.73;2.80;;;;;;;;;;5042632;28;20495;-64
2024/03/16 13:07:03;;;;;;;12.02;2.67;;;;;;;;;;5036991;28;20124;-65
2024/03/16 13:09:30;;;;;;;9.32;1.98;;;;;;;;;;5040727;28;20040;-65
2024/03/16 13:11:57;;;;;;;17.15;2.55;;;;;;;;;;5043764;28;20110;-64
2024/03/16 13:14:23;;;;;;;13.60;2.65;;;;;;;;;;5045824;28;20114;-65
2024/03/16 13:16:49;;;;;;;10.55;2.50;;;;;;;;;;5043288;28;20045;-64
2024/03/16 13:19:16;;;;;;;15.13;2.35;;;;;;;;;;5046016;28;20049;-64
2024/03/16 13:21:48;;;;;;;7.70;2.40;;;;;;;;;;5050040;28;20516;-64
2024/03/16 13:24:15;;;;;;;14.15;2.80;;;;;;;;;;5044953;28;20047;-64
2024/03/16 13:26:42;;;;;;;14.20;2.33;;;;;;;;;;5042380;28;20049;-64
2024/03/16 13:29:08;;;;;;;8.73;2.22;;;;;;;;;;5039608;28;20045;-65
2024/03/16 13:31:35;;;;;;;12.50;2.20;;;;;;;;;;5022576;28;20778;-64
2024/03/16 13:34:02;;;;;;;11.68;1.70;;;;;;;;;;5020904;28;20080;-64
2024/03/16 13:36:29;;;;;;;9.70;1.60;;;;;;;;;;5034149;28;20166;-65
2024/03/16 13:38:55;;;;;;;15.73;2.88;;;;;;;;;;5041463;28;20029;-65
2024/03/16 13:41:21;;;;;;;15.65;2.53;;;;;;;;;;5043367;28;20522;-64
2024/03/16 13:43:48;;;;;;;12.95;2.20;;;;;;;;;;5046731;28;20032;-64
2024/03/16 13:46:20;;;;;;;12.02;2.40;;;;;;;;;;5045589;28;20365;-65
2024/03/16 13:48:56;;;;;;;10.07;1.67;;;;;;;;;;5044477;28;20049;-65
2024/03/16 13:51:26;;;;;;;15.38;2.20;;;;;;;;;;5040883;28;20041;-64
2024/03/16 13:53:54;;;;;;;14.35;2.58;;;;;;;;;;5037529;28;20048;-64
2024/03/16 13:56:20;;;;;;;11.50;2.08;;;;;;;;;;5036861;28;20045;-64
2024/03/16 13:58:46;;;;;;;11.85;2.03;;;;;;;;;;5039791;28;20111;-65
2024/03/16 14:01:13;;;;;;;9.52;1.60;;;;;;;;;;5040152;28;20045;-64
2024/03/16 14:03:39;;;;;;;13.25;1.98;;;;;;;;;;5039493;28;20323;-65
2024/03/16 14:06:06;;;;;;;8.85;1.60;;;;;;;;;;5043500;28;20048;-65
2024/03/16 14:08:33;;;;;;;9.38;1.58;;;;;;;;;;5045018;28;20093;-64
2024/03/16 14:11:00;;;;;;;13.43;2.00;;;;;;;;;;5049450;28;20085;-65
2024/03/16 14:13:27;;;;;;;9.73;1.98;;;;;;;;;;5049053;28;20055;-65
2024/03/16 14:15:54;;;;;;;6.63;1.45;;;;;;;;;;5048886;28;20037;-65
2024/03/16 14:18:20;;;;;;;10.23;2.22;;;;;;;;;;5047379;28;20511;-65
2024/03/16 14:20:47;;;;;;;9.60;2.10;;;;;;;;;;5047595;28;20169;-65
2024/03/16 14:23:13;;;;;;;12.77;2.13;;;;;;;;;;5046262;28;20088;-65
2024/03/16 14:25:40;;;;;;;9.13;2.25;;;;;;;;;;5045488;28;20126;-65
2024/03/16 14:28:08;;;;;;;10.68;1.80;;;;;;;;;;5040420;28;20052;-65
2024/03/16 14:30:35;;;;;;;12.45;2.75;;;;;;;;;;5042506;28;20053;-65
2024/03/16 14:33:01;;;;;;;13.20;2.60;;;;;;;;;;5043501;28;20383;-65